Time;durP1;ratioP1;P1;durP2;ratioP2;P2;SDS_P1;SDS_P2;PMS_P1;PMS_P2;Temp;Humidity;BMP_temperature;BMP_pressure;BME280_temperature;BME280_humidity;BME280_pressure;Samples;Min_cycle;Max_cycle;Signal;HPM_P1;HPM_P2
2022/01/06 00:00:40;;;;;;;5.68;2.83;;;0.80;99.90;;;;;;5081392;28;20087;-58
2022/01/06 00:03:07;;;;;;;5.00;1.98;;;0.80;99.90;;;;;;5082249;28;20131;-58
2022/01/06 00:05:34;;;;;;;3.35;2.20;;;0.70;99.90;;;;;;5080308;28;20048;-56
2022/01/06 00:08:02;;;;;;;4.28;2.08;;;0.80;99.90;;;;;;5082701;28;20072;-57
2022/01/06 00:10:30;;;;;;;4.13;2.38;;;0.70;99.90;;;;;;5081879;28;20095;-57
2022/01/06 00:16:12;;;;;;;3.72;2.03;;;0.70;99.90;;;;;;5079079;28;20147;-56
2022/01/06 00:23:07;;;;;;;5.63;2.63;;;0.70;99.90;;;;;;5081441;28;20550;-57
2022/01/06 00:23:48;;;;;;;5.03;2.22;;;0.60;99.90;;;;;;5081962;28;20075;-57
2022/01/06 00:26:15;;;;;;;3.22;2.17;;;0.60;99.90;;;;;;5082006;28;20135;-57
2022/01/06 00:28:41;;;;;;;5.45;2.15;;;0.50;99.90;;;;;;5081040;28;20159;-56
2022/01/06 00:31:08;;;;;;;4.72;2.67;;;0.50;99.90;;;;;;5082525;28;20476;-57
2022/01/06 00:33:35;;;;;;;3.88;1.80;;;0.50;99.90;;;;;;5076897;28;20561;-56
2022/01/06 00:36:02;;;;;;;4.10;2.45;;;0.50;99.90;;;;;;5082015;28;20099;-57
2022/01/06 00:38:29;;;;;;;4.20;2.22;;;0.50;99.90;;;;;;5076002;28;20579;-56
2022/01/06 00:40:57;;;;;;;4.55;2.20;;;0.50;99.90;;;;;;5081303;28;20143;-56
2022/01/06 00:43:23;;;;;;;4.35;2.20;;;0.40;99.90;;;;;;5076724;28;20503;-55
2022/01/06 00:45:50;;;;;;;4.95;2.20;;;0.40;99.90;;;;;;5081448;28;20474;-57
2022/01/06 00:48:17;;;;;;;3.42;1.95;;;0.30;99.90;;;;;;5081792;28;20935;-57
2022/01/06 00:50:44;;;;;;;4.47;2.88;;;0.30;99.90;;;;;;5081333;28;20128;-57
2022/01/06 00:53:11;;;;;;;3.03;2.03;;;0.30;99.90;;;;;;5081525;28;20051;-57
2022/01/06 00:55:38;;;;;;;5.43;2.40;;;0.30;99.90;;;;;;5081668;28;20128;-57
2022/01/06 00:58:05;;;;;;;3.72;2.47;;;0.30;99.90;;;;;;5080927;28;20131;-56
2022/01/06 01:00:38;;;;;;;3.35;1.90;;;0.30;99.90;;;;;;5080280;28;20176;-56
2022/01/06 01:03:13;;;;;;;4.18;2.20;;;0.30;99.90;;;;;;5081083;28;20093;-57
2022/01/06 01:05:41;;;;;;;6.47;2.78;;;0.20;99.90;;;;;;5080992;28;20414;-57
2022/01/06 01:08:08;;;;;;;4.57;2.58;;;0.20;99.90;;;;;;5083946;28;20040;-58
2022/01/06 01:10:35;;;;;;;3.60;1.90;;;0.20;99.90;;;;;;5084491;28;20131;-56
2022/01/06 01:13:02;;;;;;;6.13;2.45;;;0.20;99.90;;;;;;5083912;28;20441;-56
2022/01/06 01:15:31;;;;;;;4.05;2.30;;;0.10;99.90;;;;;;5080914;28;20075;-57
2022/01/06 01:18:05;;;;;;;4.13;2.33;;;0.10;99.90;;;;;;5081895;28;20135;-56
2022/01/06 01:20:33;;;;;;;7.63;2.42;;;0.10;99.90;;;;;;5084466;28;20044;-56
2022/01/06 01:22:59;;;;;;;4.10;2.20;;;0.10;99.90;;;;;;5084622;28;20094;-58
2022/01/06 01:25:26;;;;;;;4.90;2.20;;;0.10;99.90;;;;;;5080239;28;20123;-57
2022/01/06 01:27:55;;;;;;;3.42;2.28;;;0.10;99.90;;;;;;5084477;28;20122;-58
2022/01/06 01:30:29;;;;;;;4.13;2.35;;;0.10;99.90;;;;;;5082889;28;20135;-57
2022/01/06 01:32:56;;;;;;;4.80;2.58;;;0.10;99.90;;;;;;5082447;28;20083;-56
2022/01/06 01:35:24;;;;;;;4.00;2.55;;;0.00;99.90;;;;;;5083286;28;20465;-57
2022/01/06 01:37:50;;;;;;;5.60;2.45;;;-0.10;99.90;;;;;;5084520;28;20072;-57
2022/01/06 01:40:17;;;;;;;4.63;2.20;;;-0.10;99.90;;;;;;5083515;28;20130;-57
2022/01/06 01:42:44;;;;;;;2.85;2.20;;;-0.10;99.90;;;;;;5083702;28;20146;-58
2022/01/06 01:45:11;;;;;;;4.30;2.63;;;-0.10;99.90;;;;;;5082642;28;20123;-56
2022/01/06 01:47:44;;;;;;;2.65;1.90;;;-0.20;99.90;;;;;;5084472;28;20120;-54
2022/01/06 01:50:16;;;;;;;2.78;2.00;;;-0.20;99.90;;;;;;5078959;28;20666;-56
2022/01/06 01:52:47;;;;;;;4.47;2.28;;;-0.30;99.90;;;;;;5083578;28;20051;-54
2022/01/06 01:55:18;;;;;;;4.57;2.13;;;-0.30;99.90;;;;;;5083911;28;20456;-56
2022/01/06 01:57:45;;;;;;;8.75;5.18;;;-0.20;99.90;;;;;;5082972;28;20076;-57
2022/01/06 02:00:12;;;;;;;3.78;2.38;;;-0.20;99.90;;;;;;5079582;28;20343;-55
2022/01/06 02:02:40;;;;;;;5.07;3.03;;;-0.20;99.90;;;;;;5080375;28;20101;-57
2022/01/06 02:05:08;;;;;;;3.53;1.90;;;-0.20;99.90;;;;;;5079449;28;20256;-54
2022/01/06 02:07:35;;;;;;;3.88;2.05;;;-0.10;99.90;;;;;;5080790;28;20127;-56
2022/01/06 02:10:03;;;;;;;3.55;1.73;;;-0.10;99.90;;;;;;5080568;28;20058;-57
2022/01/06 02:12:35;;;;;;;3.95;2.85;;;-0.10;99.90;;;;;;5078162;28;20655;-56
2022/01/06 02:15:05;;;;;;;4.93;2.03;;;-0.10;99.90;;;;;;5078780;28;20058;-56
2022/01/06 02:17:32;;;;;;;3.25;2.08;;;-0.20;99.90;;;;;;5080413;28;20138;-56
2022/01/06 02:20:00;;;;;;;3.20;1.90;;;-0.10;99.90;;;;;;5079509;28;20076;-57
2022/01/06 02:22:27;;;;;;;6.03;2.38;;;-0.20;99.90;;;;;;5078802;28;20065;-57
2022/01/06 02:24:53;;;;;;;5.20;2.20;;;-0.10;99.90;;;;;;5079959;28;20464;-55
2022/01/06 02:27:20;;;;;;;3.60;2.08;;;-0.20;99.90;;;;;;5080275;28;20101;-56
2022/01/06 02:29:48;;;;;;;3.05;2.28;;;-0.20;99.90;;;;;;5078518;28;20127;-57
2022/01/06 02:32:16;;;;;;;3.15;1.60;;;-0.20;99.90;;;;;;5080260;28;20575;-57
2022/01/06 02:34:46;;;;;;;3.20;2.00;;;-0.30;99.90;;;;;;5076861;28;20093;-55
2022/01/06 02:37:14;;;;;;;3.45;1.88;;;-0.30;99.90;;;;;;5080096;28;20468;-56
2022/01/06 02:39:41;;;;;;;5.18;2.20;;;-0.20;99.90;;;;;;5077950;28;20079;-55
2022/01/06 02:42:08;;;;;;;2.80;1.85;;;-0.20;99.90;;;;;;5081768;28;20139;-56
2022/01/06 02:44:38;;;;;;;3.65;2.33;;;-0.20;99.90;;;;;;5080394;28;20139;-57
2022/01/06 02:47:05;;;;;;;4.00;1.85;;;-0.20;99.90;;;;;;5081470;28;20143;-55
2022/01/06 02:49:33;;;;;;;5.07;2.03;;;-0.30;99.90;;;;;;5080350;28;20053;-57
2022/01/06 02:52:00;;;;;;;2.72;1.85;;;-0.30;99.90;;;;;;5082388;28;20128;-56
2022/01/06 02:54:27;;;;;;;4.05;2.05;;;-0.40;99.90;;;;;;5081337;28;20135;-55
2022/01/06 02:56:54;;;;;;;2.88;1.80;;;-0.40;99.90;;;;;;5081467;28;20162;-56
2022/01/06 02:59:21;;;;;;;3.20;2.30;;;-0.40;99.90;;;;;;5078749;28;20044;-53
2022/01/06 03:01:47;;;;;;;3.80;2.20;;;-0.40;99.90;;;;;;5082146;28;20563;-56
2022/01/06 03:04:14;;;;;;;3.58;2.03;;;-0.40;99.90;;;;;;5081879;28;20044;-56
2022/01/06 03:06:41;;;;;;;3.30;1.90;;;-0.40;99.90;;;;;;5047822;28;20131;-57
2022/01/06 03:09:08;;;;;;;4.20;2.17;;;-0.40;99.90;;;;;;5085228;28;20123;-51
2022/01/06 03:11:40;;;;;;;4.35;2.42;;;-0.50;99.90;;;;;;5085309;28;20135;-57
2022/01/06 03:14:07;;;;;;;3.65;1.90;;;-0.50;99.90;;;;;;5080803;28;20144;-55
2022/01/06 03:16:34;;;;;;;3.90;2.42;;;-0.50;99.90;;;;;;5085799;28;20075;-55
2022/01/06 03:19:01;;;;;;;5.57;2.25;;;-0.50;99.90;;;;;;5084852;28;20139;-56
2022/01/06 03:21:28;;;;;;;4.70;1.80;;;-0.60;99.90;;;;;;5085075;28;20080;-57
2022/01/06 03:23:54;;;;;;;3.40;2.47;;;-0.60;99.90;;;;;;5084989;28;20127;-54
2022/01/06 03:26:21;;;;;;;3.53;2.22;;;-0.60;99.90;;;;;;5085164;28;20135;-56
2022/01/06 03:28:48;;;;;;;5.18;2.03;;;-0.60;99.90;;;;;;5084097;28;20131;-55
2022/01/06 03:31:15;;;;;;;3.85;2.30;;;-0.70;99.90;;;;;;5085359;28;20534;-56
2022/01/06 03:33:41;;;;;;;4.75;2.30;;;-0.70;99.90;;;;;;5081685;28;20047;-57
2022/01/06 03:36:08;;;;;;;3.45;1.80;;;-0.70;99.90;;;;;;5079682;28;20136;-56
2022/01/06 03:38:35;;;;;;;3.25;1.90;;;-0.70;99.90;;;;;;5085132;28;20609;-56
2022/01/06 03:41:02;;;;;;;2.88;2.00;;;-0.70;99.90;;;;;;5084352;28;20091;-55
2022/01/06 03:43:28;;;;;;;3.65;2.00;;;-0.70;99.90;;;;;;5082831;28;20075;-55
2022/01/06 03:45:55;;;;;;;4.57;2.60;;;-0.70;99.90;;;;;;5084679;28;20062;-57
2022/01/06 03:48:22;;;;;;;4.30;2.00;;;-0.70;99.90;;;;;;5084636;28;20056;-56
2022/01/06 03:50:49;;;;;;;4.10;2.10;;;-0.70;99.90;;;;;;5084384;28;20449;-56
2022/01/06 03:53:16;;;;;;;4.50;2.30;;;-0.80;99.90;;;;;;5083484;28;20059;-55
2022/01/06 03:55:42;;;;;;;4.88;2.05;;;-0.80;99.90;;;;;;5084386;28;20503;-57
2022/01/06 03:58:11;;;;;;;3.83;2.00;;;-0.80;99.90;;;;;;5084534;28;20078;-57
2022/01/06 04:00:38;;;;;;;3.88;2.00;;;-0.80;99.90;;;;;;5083142;28;20156;-56
2022/01/06 04:03:05;;;;;;;3.05;1.77;;;-0.80;99.90;;;;;;5084148;28;20083;-54
2022/01/06 04:05:33;;;;;;;2.75;1.67;;;-0.80;99.90;;;;;;5084278;28;20127;-56
2022/01/06 04:08:00;;;;;;;3.95;2.30;;;-0.90;99.90;;;;;;5085075;28;20130;-56
2022/01/06 04:10:27;;;;;;;2.80;1.38;;;-0.80;99.90;;;;;;5084109;28;20176;-57
2022/01/06 04:12:53;;;;;;;3.58;1.92;;;-0.90;99.90;;;;;;5083760;28;20243;-56
2022/01/06 04:15:23;;;;;;;3.05;1.70;;;-0.80;99.90;;;;;;5082334;28;20134;-55
2022/01/06 04:17:49;;;;;;;3.03;2.15;;;-0.80;99.90;;;;;;5083702;28;20219;-56
2022/01/06 04:20:16;;;;;;;4.07;1.73;;;-0.80;99.90;;;;;;5083691;28;20127;-57
2022/01/06 04:22:43;;;;;;;3.83;1.70;;;-0.80;99.90;;;;;;5087014;28;20067;-55
2022/01/06 04:25:10;;;;;;;4.63;2.17;;;-0.80;99.90;;;;;;5085138;28;20125;-53
2022/01/06 04:27:37;;;;;;;3.60;1.67;;;-0.90;99.90;;;;;;5085403;28;20055;-55
2022/01/06 04:30:05;;;;;;;3.95;2.15;;;-0.90;99.90;;;;;;5084276;28;20127;-54
2022/01/06 04:32:33;;;;;;;3.30;1.80;;;-0.90;99.90;;;;;;5085563;28;20088;-51
2022/01/06 04:35:00;;;;;;;4.13;2.13;;;-0.90;99.90;;;;;;5078274;28;20051;-54
2022/01/06 04:37:29;;;;;;;2.95;1.95;;;-1.00;99.90;;;;;;5083656;28;20055;-52
2022/01/06 04:39:56;;;;;;;5.15;1.65;;;-1.00;99.90;;;;;;5084191;28;20105;-54
2022/01/06 04:42:23;;;;;;;2.38;1.88;;;-1.00;99.90;;;;;;5083870;28;20155;-53
2022/01/06 04:44:50;;;;;;;3.92;2.08;;;-1.00;99.90;;;;;;5083448;28;20048;-52
2022/01/06 04:47:17;;;;;;;3.85;2.55;;;-1.10;99.90;;;;;;5080562;28;20079;-56
2022/01/06 04:49:44;;;;;;;2.75;1.75;;;-1.10;99.90;;;;;;5083789;28;20694;-55
2022/01/06 04:52:11;;;;;;;5.28;2.00;;;-1.10;99.90;;;;;;5084362;28;20131;-55
2022/01/06 04:54:38;;;;;;;2.00;1.45;;;-1.10;99.90;;;;;;5083860;28;20455;-53
2022/01/06 04:57:06;;;;;;;3.33;1.85;;;-1.10;99.90;;;;;;5083716;28;20059;-54
2022/01/06 04:59:34;;;;;;;2.60;1.85;;;-1.00;99.90;;;;;;5081521;28;20040;-55
2022/01/06 05:02:01;;;;;;;4.18;2.03;;;-1.00;99.90;;;;;;5084667;28;20048;-53
2022/01/06 05:04:28;;;;;;;3.88;2.05;;;-1.10;99.90;;;;;;5083398;28;20128;-55
2022/01/06 05:06:54;;;;;;;3.47;1.95;;;-1.10;99.90;;;;;;5084056;28;20197;-56
2022/01/06 05:09:21;;;;;;;3.35;1.80;;;-1.10;99.90;;;;;;5083744;28;20087;-54
2022/01/06 05:11:48;;;;;;;5.38;1.90;;;-1.10;99.90;;;;;;5084431;28;20141;-58
2022/01/06 05:14:15;;;;;;;4.90;2.10;;;-1.20;99.90;;;;;;5082199;28;20539;-53
2022/01/06 05:16:41;;;;;;;3.58;1.67;;;-1.20;99.90;;;;;;5082756;28;20148;-57
2022/01/06 05:19:08;;;;;;;3.42;2.22;;;-1.20;99.90;;;;;;5083144;28;20138;-58
2022/01/06 05:21:35;;;;;;;3.78;1.90;;;-1.20;99.90;;;;;;5084645;28;20123;-54
2022/01/06 05:24:09;;;;;;;5.50;2.20;;;-1.20;99.90;;;;;;5083816;28;20087;-57
2022/01/06 05:26:38;;;;;;;3.00;1.65;;;-1.20;99.90;;;;;;5083970;28;20131;-56
2022/01/06 05:29:08;;;;;;;3.30;1.98;;;-1.20;99.90;;;;;;5080075;28;20119;-55
2022/01/06 05:31:35;;;;;;;3.03;1.90;;;-1.20;99.90;;;;;;5082832;28;20135;-51
2022/01/06 05:34:02;;;;;;;3.50;2.00;;;-1.20;99.90;;;;;;5080799;28;20047;-54
2022/01/06 05:36:34;;;;;;;6.90;2.58;;;-1.30;99.90;;;;;;5084687;28;20044;-57
2022/01/06 05:39:01;;;;;;;3.60;2.22;;;-1.20;99.90;;;;;;5083191;28;20159;-55
2022/01/06 05:41:28;;;;;;;2.70;1.75;;;-1.20;99.90;;;;;;5083443;28;20102;-57
2022/01/06 05:43:55;;;;;;;2.85;1.80;;;-1.20;99.90;;;;;;5081413;28;20067;-56
2022/01/06 05:46:21;;;;;;;3.08;2.33;;;-1.30;99.90;;;;;;5082099;28;20143;-54
2022/01/06 05:48:48;;;;;;;4.47;2.50;;;-1.30;99.90;;;;;;5075736;28;20211;-57
2022/01/06 05:51:15;;;;;;;3.40;2.03;;;-1.30;99.90;;;;;;5081049;28;20075;-56
2022/01/06 05:53:42;;;;;;;3.97;2.28;;;-1.30;99.90;;;;;;5081479;28;20471;-58
2022/01/06 05:56:09;;;;;;;5.35;2.53;;;-1.30;99.90;;;;;;5081693;28;20047;-57
2022/01/06 05:58:37;;;;;;;3.42;2.42;;;-1.30;99.90;;;;;;5075539;28;20139;-58
2022/01/06 06:01:04;;;;;;;2.88;1.77;;;-1.30;99.90;;;;;;5081231;28;20142;-57
2022/01/06 06:03:31;;;;;;;4.72;2.60;;;-1.30;99.90;;;;;;5078318;28;20484;-57
2022/01/06 06:05:57;;;;;;;4.47;2.63;;;-1.30;99.90;;;;;;5079935;28;20138;-57
2022/01/06 06:08:24;;;;;;;3.83;2.28;;;-1.40;99.90;;;;;;5081559;28;20058;-58
2022/01/06 06:10:51;;;;;;;4.63;2.25;;;-1.30;99.90;;;;;;5084245;28;20131;-56
2022/01/06 06:13:17;;;;;;;5.35;2.17;;;-1.30;99.90;;;;;;5082825;28;20159;-57
2022/01/06 06:15:44;;;;;;;4.72;2.60;;;-1.30;99.90;;;;;;5080533;28;20179;-56
2022/01/06 06:18:12;;;;;;;3.63;1.98;;;-1.30;99.90;;;;;;5081910;28;20131;-58
2022/01/06 06:20:40;;;;;;;4.68;2.53;;;-1.30;99.90;;;;;;5081510;28;20463;-57
2022/01/06 06:23:07;;;;;;;5.00;2.80;;;-1.30;99.90;;;;;;5080862;28;20127;-57
2022/01/06 06:25:34;;;;;;;4.82;2.58;;;-1.30;99.90;;;;;;5077619;28;20072;-57
2022/01/06 06:28:01;;;;;;;3.42;2.40;;;-1.30;99.90;;;;;;5079782;28;20083;-56
2022/01/06 06:30:27;;;;;;;3.28;2.35;;;-1.30;99.90;;;;;;5081854;28;20439;-58
2022/01/06 06:32:54;;;;;;;4.95;2.45;;;-1.40;99.90;;;;;;5079728;28;20086;-58
2022/01/06 06:35:21;;;;;;;3.78;2.33;;;-1.40;99.90;;;;;;5079633;28;20123;-57
2022/01/06 06:37:48;;;;;;;4.93;2.75;;;-1.40;99.90;;;;;;5083457;28;20055;-59
2022/01/06 06:40:15;;;;;;;3.42;2.30;;;-1.50;99.90;;;;;;5083508;28;20128;-56
2022/01/06 06:42:41;;;;;;;5.00;3.08;;;-1.40;99.90;;;;;;5083965;28;20134;-53
2022/01/06 06:45:09;;;;;;;5.22;2.67;;;-1.40;99.90;;;;;;5084608;28;20082;-55
2022/01/06 06:47:36;;;;;;;3.83;2.38;;;-1.40;99.90;;;;;;5075973;28;20542;-56
2022/01/06 06:50:03;;;;;;;4.43;2.42;;;-1.40;99.90;;;;;;5081486;28;20127;-56
2022/01/06 06:52:30;;;;;;;3.85;2.20;;;-1.40;99.90;;;;;;5083328;28;20113;-57
2022/01/06 06:54:57;;;;;;;4.65;2.85;;;-1.50;99.90;;;;;;5082880;28;20080;-56
2022/01/06 06:57:23;;;;;;;5.20;2.47;;;-1.40;99.90;;;;;;5085444;28;20131;-57
2022/01/06 06:59:50;;;;;;;3.50;2.30;;;-1.50;99.90;;;;;;5085404;28;20142;-58
2022/01/06 07:02:17;;;;;;;4.60;2.15;;;-1.50;99.90;;;;;;5083985;28;20068;-55
2022/01/06 07:04:44;;;;;;;3.65;2.85;;;-1.40;99.90;;;;;;5083425;28;20051;-57
2022/01/06 07:07:11;;;;;;;4.50;2.75;;;-1.50;99.90;;;;;;5085079;28;20157;-57
2022/01/06 07:09:38;;;;;;;4.15;2.20;;;-1.50;99.90;;;;;;5084246;28;20416;-56
2022/01/06 07:12:05;;;;;;;4.32;2.50;;;-1.50;99.90;;;;;;5085826;28;20136;-56
2022/01/06 07:14:32;;;;;;;4.65;2.05;;;-1.50;99.90;;;;;;5082915;28;20067;-55
2022/01/06 07:16:59;;;;;;;4.32;2.50;;;-1.50;99.90;;;;;;5085836;28;20056;-55
2022/01/06 07:19:26;;;;;;;3.90;2.60;;;-1.50;99.90;;;;;;5085603;28;20131;-52
2022/01/06 07:21:53;;;;;;;5.22;2.60;;;-1.50;99.90;;;;;;5086501;28;20116;-55
2022/01/06 07:24:19;;;;;;;3.42;2.17;;;-1.50;99.90;;;;;;5086414;28;20451;-56
2022/01/06 07:26:46;;;;;;;4.50;3.20;;;-1.50;99.90;;;;;;5087886;28;20133;-55
2022/01/06 07:29:13;;;;;;;3.80;2.60;;;-1.50;99.90;;;;;;5085510;28;20094;-56
2022/01/06 07:31:40;;;;;;;4.93;2.67;;;-1.50;99.90;;;;;;5085701;28;20079;-56
2022/01/06 07:34:07;;;;;;;3.92;2.83;;;-1.50;99.90;;;;;;5083344;28;20076;-56
2022/01/06 07:36:33;;;;;;;3.90;2.88;;;-1.60;99.90;;;;;;5084849;28;20372;-56
2022/01/06 07:39:00;;;;;;;6.43;3.83;;;-1.60;99.90;;;;;;5086687;28;20048;-56
2022/01/06 07:41:27;;;;;;;5.63;2.63;;;-1.60;99.90;;;;;;5085883;28;20500;-56
2022/01/06 07:43:54;;;;;;;6.72;3.95;;;-1.60;99.90;;;;;;5082725;28;20052;-55
2022/01/06 07:46:21;;;;;;;5.43;3.03;;;-1.60;99.90;;;;;;5084514;28;20411;-55
2022/01/06 07:48:55;;;;;;;5.03;2.58;;;-1.60;99.90;;;;;;5084813;28;20279;-54
2022/01/06 07:51:26;;;;;;;4.47;2.70;;;-1.60;99.90;;;;;;5085223;28;20333;-53
2022/01/06 07:53:53;;;;;;;3.58;2.63;;;-1.60;99.90;;;;;;5085705;28;20139;-54
2022/01/06 07:56:20;;;;;;;3.13;2.30;;;-1.60;99.90;;;;;;5086503;28;20088;-57
2022/01/06 07:58:47;;;;;;;4.22;2.63;;;-1.60;99.90;;;;;;5081898;28;20056;-57
2022/01/06 08:01:13;;;;;;;7.13;4.13;;;-1.60;99.90;;;;;;5083342;28;20072;-56
2022/01/06 08:03:41;;;;;;;6.18;4.40;;;-1.60;99.90;;;;;;5083063;28;20105;-55
2022/01/06 08:06:08;;;;;;;6.10;3.10;;;-1.60;99.90;;;;;;5084034;28;20155;-55
2022/01/06 08:08:35;;;;;;;4.72;2.83;;;-1.60;99.90;;;;;;5083177;28;20158;-55
2022/01/06 08:11:02;;;;;;;4.95;2.45;;;-1.70;99.90;;;;;;5083668;28;20083;-52
2022/01/06 08:13:30;;;;;;;4.20;2.92;;;-1.60;99.90;;;;;;5081576;28;20127;-56
2022/01/06 08:15:57;;;;;;;5.40;2.90;;;-1.60;99.90;;;;;;5083803;28;20480;-56
2022/01/06 08:18:23;;;;;;;6.45;4.18;;;-1.60;99.90;;;;;;5081315;28;20419;-56
2022/01/06 08:20:50;;;;;;;4.72;3.42;;;-1.50;99.90;;;;;;5082162;28;20072;-63
2022/01/06 08:23:17;;;;;;;5.75;3.20;;;-1.50;99.90;;;;;;5077269;28;20516;-56
2022/01/06 08:25:44;;;;;;;6.47;3.42;;;-1.50;99.90;;;;;;5082540;28;20445;-55
2022/01/06 08:28:11;;;;;;;4.32;3.25;;;-1.50;99.90;;;;;;5076946;28;20381;-55
2022/01/06 08:30:37;;;;;;;6.72;3.13;;;-1.50;99.90;;;;;;5081635;28;20048;-57
2022/01/06 08:33:04;;;;;;;5.28;3.83;;;-1.40;99.90;;;;;;5081547;28;20519;-55
2022/01/06 08:35:31;;;;;;;5.53;3.63;;;-1.40;99.90;;;;;;5082307;28;20062;-58
2022/01/06 08:37:58;;;;;;;5.60;4.10;;;-1.40;99.90;;;;;;5081087;28;20093;-56
2022/01/06 08:40:25;;;;;;;4.65;3.30;;;-1.40;99.90;;;;;;5083258;28;20123;-57
2022/01/06 08:42:52;;;;;;;5.45;3.53;;;-1.30;99.90;;;;;;5083079;28;20141;-56
2022/01/06 08:45:19;;;;;;;4.03;2.88;;;-1.30;99.90;;;;;;5081728;28;20086;-56
2022/01/06 08:47:46;;;;;;;6.90;3.10;;;-1.30;99.90;;;;;;5083636;28;20159;-57
2022/01/06 08:50:15;;;;;;;8.10;4.05;;;-1.30;99.90;;;;;;5082580;28;20055;-56
2022/01/06 08:52:42;;;;;;;5.88;3.55;;;-1.30;99.90;;;;;;5083260;28;20052;-55
2022/01/06 08:55:09;;;;;;;5.05;3.30;;;-1.20;99.90;;;;;;5082646;28;20080;-56
2022/01/06 08:57:36;;;;;;;5.63;3.58;;;-1.20;99.90;;;;;;5082908;28;20052;-57
2022/01/06 09:00:05;;;;;;;3.67;2.78;;;-1.10;99.90;;;;;;5080901;28;20126;-55
2022/01/06 09:02:31;;;;;;;5.40;3.15;;;-1.00;99.90;;;;;;5082627;28;20564;-56
2022/01/06 09:05:00;;;;;;;4.18;2.90;;;-1.00;99.90;;;;;;5082479;28;20075;-55
2022/01/06 09:07:26;;;;;;;4.93;3.00;;;-1.00;99.90;;;;;;5083065;28;20143;-54
2022/01/06 09:09:53;;;;;;;3.85;2.83;;;-0.90;99.90;;;;;;5082445;28;20052;-54
2022/01/06 09:12:20;;;;;;;6.63;2.92;;;-0.90;99.90;;;;;;5080847;28;20209;-56
2022/01/06 09:14:47;;;;;;;3.97;2.67;;;-0.90;99.90;;;;;;5081376;28;20083;-57
2022/01/06 09:17:17;;;;;;;6.45;3.05;;;-0.80;99.90;;;;;;5082840;28;20686;-55
2022/01/06 09:19:43;;;;;;;4.18;2.90;;;-0.80;99.90;;;;;;5082291;28;20048;-57
2022/01/06 09:22:10;;;;;;;2.97;2.05;;;-0.80;99.90;;;;;;5082563;28;20131;-57
2022/01/06 09:24:37;;;;;;;4.25;2.50;;;-0.80;99.90;;;;;;5082397;28;20044;-56
2022/01/06 09:27:04;;;;;;;4.85;2.58;;;-0.70;99.90;;;;;;5081056;28;20142;-57
2022/01/06 09:29:31;;;;;;;4.82;2.72;;;-0.70;99.90;;;;;;5080899;28;20080;-56
2022/01/06 09:31:58;;;;;;;3.50;2.40;;;-0.60;99.90;;;;;;5081551;28;20415;-57
2022/01/06 09:34:24;;;;;;;4.05;2.60;;;-0.60;99.90;;;;;;5078054;28;20187;-57
2022/01/06 09:36:51;;;;;;;3.85;2.22;;;-0.60;99.90;;;;;;5081603;28;20139;-56
2022/01/06 09:39:19;;;;;;;4.72;2.15;;;-0.50;99.90;;;;;;5082317;28;20444;-56
2022/01/06 09:41:47;;;;;;;3.92;2.65;;;-0.50;99.90;;;;;;5080966;28;20475;-56
2022/01/06 09:44:14;;;;;;;3.72;2.47;;;-0.40;99.90;;;;;;5080751;28;20040;-55
2022/01/06 09:46:57;;;;;;;3.13;2.13;;;-0.30;99.90;;;;;;5080357;28;20488;-55
2022/01/06 09:49:24;;;;;;;3.90;2.50;;;-0.30;99.90;;;;;;5082256;28;20127;-56
2022/01/06 09:51:51;;;;;;;4.28;2.53;;;-0.20;99.90;;;;;;5082026;28;20068;-57
2022/01/06 09:54:18;;;;;;;5.38;3.67;;;-0.10;99.90;;;;;;5083631;28;20055;-55
2022/01/06 09:56:45;;;;;;;4.05;2.33;;;0.10;99.90;;;;;;5086037;28;20087;-55
2022/01/06 09:59:12;;;;;;;4.57;2.33;;;0.20;99.90;;;;;;5082212;28;20122;-55
2022/01/06 10:01:38;;;;;;;5.93;2.30;;;0.40;99.90;;;;;;5081371;28;20962;-57
2022/01/06 10:04:27;;;;;;;2.72;1.83;;;0.50;99.90;;;;;;5078714;28;20495;-55
2022/01/06 10:07:04;;;;;;;4.38;1.80;;;0.60;99.90;;;;;;5079533;28;20151;-56
2022/01/06 10:09:34;;;;;;;5.35;1.80;;;0.80;99.90;;;;;;5078169;28;20060;-57
2022/01/06 10:12:03;;;;;;;5.65;2.33;;;0.90;99.90;;;;;;5079895;28;20447;-56
2022/01/06 10:14:43;;;;;;;4.63;2.00;;;1.10;99.90;;;;;;5071272;28;20142;-56
2022/01/06 10:17:11;;;;;;;5.68;2.80;;;1.30;99.90;;;;;;5080094;28;20109;-57
2022/01/06 10:19:42;;;;;;;6.18;2.53;;;1.50;99.90;;;;;;5078433;28;20091;-56
2022/01/06 10:22:16;;;;;;;8.10;3.30;;;1.70;99.90;;;;;;5079501;28;20124;-56
2022/01/06 10:24:44;;;;;;;7.30;3.33;;;1.90;99.90;;;;;;5079143;28;20044;-56
2022/01/06 10:27:16;;;;;;;6.10;2.72;;;2.00;99.90;;;;;;5079466;28;20131;-53
2022/01/06 10:29:48;;;;;;;5.60;2.50;;;2.20;99.90;;;;;;5077937;28;20079;-58
2022/01/06 10:32:16;;;;;;;7.07;2.33;;;2.40;99.90;;;;;;5079577;28;20044;-56
2022/01/06 10:34:53;;;;;;;6.50;2.42;;;2.50;99.90;;;;;;5078447;28;20081;-56
2022/01/06 10:37:21;;;;;;;5.75;2.10;;;2.70;99.90;;;;;;5077852;28;20162;-57
2022/01/06 10:39:49;;;;;;;3.25;1.90;;;2.90;99.90;;;;;;5078634;28;20541;-58
2022/01/06 10:42:16;;;;;;;4.03;2.00;;;3.10;99.90;;;;;;5079015;28;21072;-56
2022/01/06 10:44:51;;;;;;;3.97;1.48;;;3.20;99.90;;;;;;5077879;28;20442;-56
2022/01/06 10:47:29;;;;;;;4.45;1.80;;;3.40;99.90;;;;;;5078982;28;20075;-56
2022/01/06 10:50:14;;;;;;;4.32;1.80;;;3.50;99.90;;;;;;5078534;28;20518;-57
2022/01/06 10:53:02;;;;;;;4.68;1.60;;;3.70;99.90;;;;;;5080843;28;20117;-57
2022/01/06 10:55:35;;;;;;;2.10;1.05;;;3.90;99.90;;;;;;5059134;28;20132;-56
2022/01/06 10:58:07;;;;;;;3.78;1.58;;;4.00;99.90;;;;;;5072437;28;20127;-58
2022/01/06 11:00:41;;;;;;;4.25;1.92;;;4.20;99.90;;;;;;5066391;28;20127;-56
2022/01/06 11:03:19;;;;;;;3.50;1.40;;;4.30;99.90;;;;;;5081968;28;20080;-55
2022/01/06 11:05:51;;;;;;;3.00;1.63;;;4.30;99.90;;;;;;5085006;28;20052;-57
2022/01/06 11:08:28;;;;;;;2.67;1.50;;;4.30;99.90;;;;;;5083803;28;20262;-57
2022/01/06 11:13:52;;;;;;;3.85;1.35;;;4.40;99.90;;;;;;5065418;28;20135;-57
2022/01/06 11:16:19;;;;;;;3.85;1.40;;;4.40;99.90;;;;;;5077771;28;20555;-57
2022/01/06 11:18:56;;;;;;;3.35;1.60;;;4.40;99.90;;;;;;5077563;28;20748;-55
2022/01/06 11:21:41;;;;;;;4.78;1.98;;;4.50;99.90;;;;;;5072121;28;20155;-55
2022/01/06 11:24:18;;;;;;;2.53;1.60;;;4.60;99.90;;;;;;5076131;28;20105;-57
2022/01/06 11:26:57;;;;;;;2.83;1.50;;;4.80;99.90;;;;;;5079016;28;20137;-57
2022/01/06 11:29:26;;;;;;;2.75;1.23;;;4.90;99.90;;;;;;5078609;28;20050;-57
2022/01/06 11:31:53;;;;;;;2.35;0.98;;;5.00;99.90;;;;;;5081686;28;20086;-57
2022/01/06 11:34:20;;;;;;;3.20;1.10;;;5.00;99.90;;;;;;5080496;28;20589;-56
2022/01/06 11:36:51;;;;;;;5.63;1.25;;;5.10;99.90;;;;;;5080379;28;20083;-57
2022/01/06 11:39:26;;;;;;;4.45;1.55;;;5.20;99.90;;;;;;5078481;28;20499;-56
2022/01/06 11:41:53;;;;;;;2.50;1.08;;;5.20;99.90;;;;;;5081253;28;20480;-59
2022/01/06 11:44:29;;;;;;;3.45;1.52;;;5.20;99.90;;;;;;5079269;28;20496;-55
2022/01/06 11:46:57;;;;;;;2.10;0.77;;;5.20;99.90;;;;;;5080196;28;20101;-57
2022/01/06 11:49:42;;;;;;;3.33;1.20;;;5.20;99.90;;;;;;5079966;28;20144;-56
2022/01/06 11:52:09;;;;;;;3.80;1.02;;;5.20;99.90;;;;;;5079769;28;20087;-57
2022/01/06 11:55:12;;;;;;;2.00;0.90;;;5.20;99.90;;;;;;5080491;28;20123;-57
2022/01/06 11:57:39;;;;;;;2.70;1.20;;;5.20;99.90;;;;;;5071708;28;20500;-57
2022/01/06 12:00:17;;;;;;;1.30;0.80;;;5.20;99.90;;;;;;5079879;28;20131;-55
2022/01/06 12:03:21;;;;;;;2.40;1.30;;;5.20;99.90;;;;;;5078596;28;20159;-56
2022/01/06 12:05:51;;;;;;;2.70;1.10;;;5.30;99.90;;;;;;5077496;28;20119;-56
2022/01/06 12:08:20;;;;;;;2.65;1.30;;;5.30;99.90;;;;;;5079668;28;20131;-55
2022/01/06 12:10:48;;;;;;;2.65;1.20;;;5.30;99.90;;;;;;5080638;28;21035;-57
2022/01/06 12:13:15;;;;;;;5.57;1.98;;;5.30;99.90;;;;;;5080597;28;20127;-57
2022/01/06 12:15:50;;;;;;;3.92;1.42;;;5.20;99.90;;;;;;5078900;28;20132;-56
2022/01/06 12:18:24;;;;;;;3.10;1.17;;;5.20;99.90;;;;;;5080104;28;20044;-55
2022/01/06 12:20:52;;;;;;;3.17;0.95;;;5.20;99.90;;;;;;5080002;28;20127;-55
2022/01/06 12:23:19;;;;;;;2.08;1.17;;;5.20;99.90;;;;;;5080298;28;20158;-55
2022/01/06 12:26:00;;;;;;;1.60;1.02;;;5.20;99.90;;;;;;5080333;28;20079;-58
2022/01/06 12:28:27;;;;;;;2.65;1.45;;;5.30;99.90;;;;;;5077977;28;20080;-54
2022/01/06 12:30:58;;;;;;;3.42;1.52;;;5.20;99.90;;;;;;5081412;28;20142;-57
2022/01/06 12:33:25;;;;;;;2.30;1.40;;;5.20;99.90;;;;;;5079890;28;20058;-57
2022/01/06 12:35:53;;;;;;;2.97;1.42;;;5.20;99.90;;;;;;5080187;28;20048;-57
2022/01/06 12:38:31;;;;;;;2.75;1.20;;;5.20;99.90;;;;;;5079528;28;20079;-53
2022/01/06 12:41:01;;;;;;;4.13;1.40;;;5.20;99.90;;;;;;5080678;28;20148;-57
2022/01/06 12:43:35;;;;;;;3.53;1.60;;;5.20;99.90;;;;;;5078331;28;20086;-57
2022/01/06 12:46:24;;;;;;;2.55;1.38;;;5.20;99.90;;;;;;5079860;28;20062;-57
2022/01/06 12:48:52;;;;;;;3.90;1.63;;;5.20;99.90;;;;;;5064186;28;20048;-57
2022/01/06 12:51:24;;;;;;;2.60;1.33;;;5.20;99.90;;;;;;5077513;28;20139;-57
2022/01/06 12:53:59;;;;;;;2.75;1.60;;;5.30;99.90;;;;;;5079555;28;20479;-56
2022/01/06 12:56:31;;;;;;;3.90;1.80;;;5.30;99.90;;;;;;5078909;28;20091;-54
2022/01/06 12:58:59;;;;;;;4.30;1.90;;;5.30;99.90;;;;;;5077733;28;20130;-57
2022/01/06 13:01:27;;;;;;;3.50;1.52;;;5.30;99.90;;;;;;5080094;28;20158;-58
2022/01/06 13:03:54;;;;;;;3.03;1.38;;;5.30;99.90;;;;;;5079019;28;20509;-58
2022/01/06 13:06:22;;;;;;;3.03;1.65;;;5.40;99.90;;;;;;5061432;28;20510;-55